sensor_id;sensor_type;location;lat;lon;timestamp;P1;durP1;ratioP1;P2;durP2;ratioP2
76210;SDS011;65003;49.518;11.280;2022-11-12T00:01:35;7.93;;;6.73;;
76210;SDS011;65003;49.518;11.280;2022-11-12T00:04:02;7.43;;;6.03;;
76210;SDS011;65003;49.518;11.280;2022-11-12T00:06:29;10.13;;;6.50;;
76210;SDS011;65003;49.518;11.280;2022-11-12T00:08:55;8.93;;;6.87;;
76210;SDS011;65003;49.518;11.280;2022-11-12T00:11:22;9.53;;;6.20;;
76210;SDS011;65003;49.518;11.280;2022-11-12T00:13:48;10.30;;;5.80;;
76210;SDS011;65003;49.518;11.280;2022-11-12T00:16:15;12.67;;;6.97;;
76210;SDS011;65003;49.518;11.280;2022-11-12T00:18:42;12.40;;;6.83;;
76210;SDS011;65003;49.518;11.280;2022-11-12T00:21:08;9.60;;;6.33;;
76210;SDS011;65003;49.518;11.280;2022-11-12T00:23:35;11.20;;;6.67;;
76210;SDS011;65003;49.518;11.280;2022-11-12T00:26:01;9.83;;;6.83;;
76210;SDS011;65003;49.518;11.280;2022-11-12T00:28:28;8.47;;;6.73;;
76210;SDS011;65003;49.518;11.280;2022-11-12T00:30:55;8.10;;;5.73;;
76210;SDS011;65003;49.518;11.280;2022-11-12T00:33:21;8.23;;;6.23;;
76210;SDS011;65003;49.518;11.280;2022-11-12T00:35:48;8.57;;;6.33;;
76210;SDS011;65003;49.518;11.280;2022-11-12T00:38:14;9.60;;;6.13;;
76210;SDS011;65003;49.518;11.280;2022-11-12T00:40:41;8.23;;;6.13;;
76210;SDS011;65003;49.518;11.280;2022-11-12T00:43:07;8.63;;;5.63;;
76210;SDS011;65003;49.518;11.280;2022-11-12T00:45:34;8.90;;;6.27;;
76210;SDS011;65003;49.518;11.280;2022-11-12T00:48:01;7.50;;;5.70;;
76210;SDS011;65003;49.518;11.280;2022-11-12T00:50:27;8.10;;;5.90;;
76210;SDS011;65003;49.518;11.280;2022-11-12T00:52:54;8.37;;;5.90;;
76210;SDS011;65003;49.518;11.280;2022-11-12T00:55:20;8.10;;;6.83;;
76210;SDS011;65003;49.518;11.280;2022-11-12T00:57:47;7.13;;;5.10;;
76210;SDS011;65003;49.518;11.280;2022-11-12T01:00:14;8.67;;;6.17;;
76210;SDS011;65003;49.518;11.280;2022-11-12T01:02:40;6.30;;;5.13;;
76210;SDS011;65003;49.518;11.280;2022-11-12T01:05:07;7.10;;;5.77;;
76210;SDS011;65003;49.518;11.280;2022-11-12T01:07:34;9.77;;;6.63;;
76210;SDS011;65003;49.518;11.280;2022-11-12T01:10:00;7.70;;;5.97;;
76210;SDS011;65003;49.518;11.280;2022-11-12T01:12:29;6.60;;;5.47;;
76210;SDS011;65003;49.518;11.280;2022-11-12T01:14:53;6.73;;;5.90;;
76210;SDS011;65003;49.518;11.280;2022-11-12T01:17:21;9.18;;;6.70;;
76210;SDS011;65003;49.518;11.280;2022-11-12T01:19:48;7.20;;;5.53;;
76210;SDS011;65003;49.518;11.280;2022-11-12T01:22:14;7.37;;;6.00;;
76210;SDS011;65003;49.518;11.280;2022-11-12T01:24:40;7.03;;;5.13;;
76210;SDS011;65003;49.518;11.280;2022-11-12T01:27:07;7.83;;;5.90;;
76210;SDS011;65003;49.518;11.280;2022-11-12T01:29:33;8.87;;;6.23;;
76210;SDS011;65003;49.518;11.280;2022-11-12T01:32:00;7.03;;;5.90;;
76210;SDS011;65003;49.518;11.280;2022-11-12T01:34:27;7.33;;;5.47;;
76210;SDS011;65003;49.518;11.280;2022-11-12T01:36:53;7.43;;;5.60;;
76210;SDS011;65003;49.518;11.280;2022-11-12T01:39:20;7.70;;;5.63;;
76210;SDS011;65003;49.518;11.280;2022-11-12T01:41:46;7.23;;;5.47;;
76210;SDS011;65003;49.518;11.280;2022-11-12T01:44:17;7.17;;;5.33;;
76210;SDS011;65003;49.518;11.280;2022-11-12T01:46:52;8.20;;;5.67;;
76210;SDS011;65003;49.518;11.280;2022-11-12T01:49:29;7.57;;;5.50;;
76210;SDS011;65003;49.518;11.280;2022-11-12T01:51:55;9.10;;;5.80;;
76210;SDS011;65003;49.518;11.280;2022-11-12T01:54:21;6.97;;;5.27;;
76210;SDS011;65003;49.518;11.280;2022-11-12T01:56:48;7.30;;;5.87;;
76210;SDS011;65003;49.518;11.280;2022-11-12T01:59:16;8.53;;;6.43;;
76210;SDS011;65003;49.518;11.280;2022-11-12T02:01:42;8.03;;;5.13;;
76210;SDS011;65003;49.518;11.280;2022-11-12T02:04:08;8.17;;;5.30;;
76210;SDS011;65003;49.518;11.280;2022-11-12T02:06:35;7.43;;;5.47;;
76210;SDS011;65003;49.518;11.280;2022-11-12T02:09:02;5.97;;;4.97;;
76210;SDS011;65003;49.518;11.280;2022-11-12T02:11:28;6.73;;;4.50;;
76210;SDS011;65003;49.518;11.280;2022-11-12T02:13:55;6.70;;;4.77;;
76210;SDS011;65003;49.518;11.280;2022-11-12T02:16:25;8.23;;;5.67;;
76210;SDS011;65003;49.518;11.280;2022-11-12T02:18:50;6.83;;;5.17;;
76210;SDS011;65003;49.518;11.280;2022-11-12T02:21:18;7.30;;;5.47;;
76210;SDS011;65003;49.518;11.280;2022-11-12T02:23:44;6.90;;;4.97;;
76210;SDS011;65003;49.518;11.280;2022-11-12T02:26:11;6.57;;;5.30;;
76210;SDS011;65003;49.518;11.280;2022-11-12T02:28:37;8.17;;;5.60;;
76210;SDS011;65003;49.518;11.280;2022-11-12T02:31:04;7.23;;;5.07;;
76210;SDS011;65003;49.518;11.280;2022-11-12T02:33:31;7.13;;;4.63;;
76210;SDS011;65003;49.518;11.280;2022-11-12T02:35:57;6.60;;;5.00;;
76210;SDS011;65003;49.518;11.280;2022-11-12T02:38:24;6.17;;;4.80;;
76210;SDS011;65003;49.518;11.280;2022-11-12T02:40:50;5.73;;;4.40;;
76210;SDS011;65003;49.518;11.280;2022-11-12T02:43:17;6.13;;;4.80;;
76210;SDS011;65003;49.518;11.280;2022-11-12T02:45:44;6.10;;;4.43;;
76210;SDS011;65003;49.518;11.280;2022-11-12T02:48:10;6.13;;;4.70;;
76210;SDS011;65003;49.518;11.280;2022-11-12T02:50:37;5.57;;;4.47;;
76210;SDS011;65003;49.518;11.280;2022-11-12T02:53:03;5.83;;;4.47;;
76210;SDS011;65003;49.518;11.280;2022-11-12T02:55:30;5.87;;;4.40;;
76210;SDS011;65003;49.518;11.280;2022-11-12T02:57:57;4.40;;;4.00;;
76210;SDS011;65003;49.518;11.280;2022-11-12T03:00:23;5.83;;;4.53;;
76210;SDS011;65003;49.518;11.280;2022-11-12T03:02:50;6.10;;;4.53;;
76210;SDS011;65003;49.518;11.280;2022-11-12T03:05:28;5.27;;;4.30;;
76210;SDS011;65003;49.518;11.280;2022-11-12T03:07:57;5.40;;;4.33;;
76210;SDS011;65003;49.518;11.280;2022-11-12T03:10:25;7.50;;;4.43;;
76210;SDS011;65003;49.518;11.280;2022-11-12T03:12:51;5.53;;;4.43;;
76210;SDS011;65003;49.518;11.280;2022-11-12T03:15:17;4.13;;;3.73;;
76210;SDS011;65003;49.518;11.280;2022-11-12T03:17:44;4.90;;;4.13;;
76210;SDS011;65003;49.518;11.280;2022-11-12T03:20:11;6.67;;;4.47;;
76210;SDS011;65003;49.518;11.280;2022-11-12T03:22:39;4.63;;;3.97;;
76210;SDS011;65003;49.518;11.280;2022-11-12T03:25:04;4.53;;;3.77;;
76210;SDS011;65003;49.518;11.280;2022-11-12T03:27:31;5.20;;;4.13;;
76210;SDS011;65003;49.518;11.280;2022-11-12T03:29:58;5.27;;;4.17;;
76210;SDS011;65003;49.518;11.280;2022-11-12T03:32:24;4.67;;;4.07;;
76210;SDS011;65003;49.518;11.280;2022-11-12T03:34:51;4.70;;;3.80;;
76210;SDS011;65003;49.518;11.280;2022-11-12T03:37:17;5.03;;;3.97;;
76210;SDS011;65003;49.518;11.280;2022-11-12T03:39:44;4.47;;;3.87;;
76210;SDS011;65003;49.518;11.280;2022-11-12T03:42:10;4.60;;;4.00;;
76210;SDS011;65003;49.518;11.280;2022-11-12T03:44:37;5.03;;;4.27;;
76210;SDS011;65003;49.518;11.280;2022-11-12T03:47:04;8.40;;;3.77;;
76210;SDS011;65003;49.518;11.280;2022-11-12T03:49:30;5.03;;;4.23;;
76210;SDS011;65003;49.518;11.280;2022-11-12T03:51:57;6.40;;;4.80;;
76210;SDS011;65003;49.518;11.280;2022-11-12T03:54:23;4.73;;;3.83;;
76210;SDS011;65003;49.518;11.280;2022-11-12T03:56:50;4.83;;;4.20;;
76210;SDS011;65003;49.518;11.280;2022-11-12T03:59:17;5.77;;;4.27;;
76210;SDS011;65003;49.518;11.280;2022-11-12T04:01:43;4.77;;;3.97;;
76210;SDS011;65003;49.518;11.280;2022-11-12T04:04:10;6.23;;;4.83;;
76210;SDS011;65003;49.518;11.280;2022-11-12T04:06:36;5.20;;;3.97;;
76210;SDS011;65003;49.518;11.280;2022-11-12T04:09:08;6.27;;;5.10;;
76210;SDS011;65003;49.518;11.280;2022-11-12T04:11:35;6.33;;;4.53;;
76210;SDS011;65003;49.518;11.280;2022-11-12T04:14:02;8.00;;;5.40;;
76210;SDS011;65003;49.518;11.280;2022-11-12T04:16:28;7.03;;;4.37;;
76210;SDS011;65003;49.518;11.280;2022-11-12T04:19:01;6.90;;;5.20;;
76210;SDS011;65003;49.518;11.280;2022-11-12T04:21:39;6.07;;;4.83;;
76210;SDS011;65003;49.518;11.280;2022-11-12T04:24:10;7.53;;;5.17;;
76210;SDS011;65003;49.518;11.280;2022-11-12T04:26:37;6.80;;;5.27;;
76210;SDS011;65003;49.518;11.280;2022-11-12T04:29:04;7.37;;;5.60;;
76210;SDS011;65003;49.518;11.280;2022-11-12T04:31:36;8.27;;;6.07;;
76210;SDS011;65003;49.518;11.280;2022-11-12T04:34:02;8.17;;;5.77;;
76210;SDS011;65003;49.518;11.280;2022-11-12T04:36:35;7.47;;;5.83;;
76210;SDS011;65003;49.518;11.280;2022-11-12T04:39:01;8.20;;;6.33;;
76210;SDS011;65003;49.518;11.280;2022-11-12T04:41:28;12.87;;;7.17;;
76210;SDS011;65003;49.518;11.280;2022-11-12T04:44:00;8.83;;;6.03;;
76210;SDS011;65003;49.518;11.280;2022-11-12T04:46:32;8.83;;;6.23;;
76210;SDS011;65003;49.518;11.280;2022-11-12T04:48:59;8.13;;;5.93;;
76210;SDS011;65003;49.518;11.280;2022-11-12T04:51:25;6.97;;;5.47;;
76210;SDS011;65003;49.518;11.280;2022-11-12T04:53:58;9.60;;;6.53;;
76210;SDS011;65003;49.518;11.280;2022-11-12T04:56:24;8.73;;;6.10;;
76210;SDS011;65003;49.518;11.280;2022-11-12T04:58:51;7.87;;;5.87;;
76210;SDS011;65003;49.518;11.280;2022-11-12T05:01:17;8.50;;;5.87;;
76210;SDS011;65003;49.518;11.280;2022-11-12T05:03:44;8.33;;;6.27;;
76210;SDS011;65003;49.518;11.280;2022-11-12T05:06:10;7.17;;;5.50;;
76210;SDS011;65003;49.518;11.280;2022-11-12T05:08:43;8.47;;;6.50;;
76210;SDS011;65003;49.518;11.280;2022-11-12T05:11:09;8.80;;;6.40;;
76210;SDS011;65003;49.518;11.280;2022-11-12T05:13:36;12.53;;;6.03;;
76210;SDS011;65003;49.518;11.280;2022-11-12T05:16:02;10.57;;;5.80;;
76210;SDS011;65003;49.518;11.280;2022-11-12T05:18:29;8.30;;;6.27;;
76210;SDS011;65003;49.518;11.280;2022-11-12T05:20:56;13.80;;;6.67;;
76210;SDS011;65003;49.518;11.280;2022-11-12T05:23:22;35.33;;;8.07;;
76210;SDS011;65003;49.518;11.280;2022-11-12T05:25:49;14.33;;;7.97;;
76210;SDS011;65003;49.518;11.280;2022-11-12T05:28:15;13.63;;;7.67;;
76210;SDS011;65003;49.518;11.280;2022-11-12T05:30:42;19.43;;;6.87;;
76210;SDS011;65003;49.518;11.280;2022-11-12T05:33:08;12.63;;;6.60;;
76210;SDS011;65003;49.518;11.280;2022-11-12T05:35:35;11.60;;;6.63;;
76210;SDS011;65003;49.518;11.280;2022-11-12T05:38:02;12.57;;;6.07;;
76210;SDS011;65003;49.518;11.280;2022-11-12T05:40:28;17.80;;;6.43;;
76210;SDS011;65003;49.518;11.280;2022-11-12T05:42:55;10.83;;;6.80;;
76210;SDS011;65003;49.518;11.280;2022-11-12T05:45:21;20.80;;;6.43;;
76210;SDS011;65003;49.518;11.280;2022-11-12T05:47:48;22.07;;;6.53;;
76210;SDS011;65003;49.518;11.280;2022-11-12T05:50:15;14.07;;;7.00;;
76210;SDS011;65003;49.518;11.280;2022-11-12T05:52:41;17.43;;;7.03;;
76210;SDS011;65003;49.518;11.280;2022-11-12T05:55:08;12.60;;;7.00;;
76210;SDS011;65003;49.518;11.280;2022-11-12T05:57:34;15.30;;;7.53;;
76210;SDS011;65003;49.518;11.280;2022-11-12T06:00:01;21.47;;;7.03;;
76210;SDS011;65003;49.518;11.280;2022-11-12T06:02:28;15.33;;;6.87;;
76210;SDS011;65003;49.518;11.280;2022-11-12T06:04:55;9.60;;;5.53;;
76210;SDS011;65003;49.518;11.280;2022-11-12T06:07:22;12.07;;;5.93;;
76210;SDS011;65003;49.518;11.280;2022-11-12T06:09:48;9.20;;;5.43;;
76210;SDS011;65003;49.518;11.280;2022-11-12T06:12:15;14.77;;;6.10;;
76210;SDS011;65003;49.518;11.280;2022-11-12T06:14:42;29.73;;;7.70;;
76210;SDS011;65003;49.518;11.280;2022-11-12T06:17:08;27.00;;;7.70;;
76210;SDS011;65003;49.518;11.280;2022-11-12T06:19:35;14.40;;;8.43;;
76210;SDS011;65003;49.518;11.280;2022-11-12T06:22:01;18.37;;;8.93;;
76210;SDS011;65003;49.518;11.280;2022-11-12T06:24:28;10.77;;;5.90;;
76210;SDS011;65003;49.518;11.280;2022-11-12T06:26:54;16.67;;;7.37;;
76210;SDS011;65003;49.518;11.280;2022-11-12T06:29:21;14.53;;;6.00;;
76210;SDS011;65003;49.518;11.280;2022-11-12T06:31:48;8.53;;;6.33;;
76210;SDS011;65003;49.518;11.280;2022-11-12T06:34:14;10.07;;;5.93;;
76210;SDS011;65003;49.518;11.280;2022-11-12T06:36:41;12.27;;;6.47;;
76210;SDS011;65003;49.518;11.280;2022-11-12T06:39:09;16.47;;;6.30;;
76210;SDS011;65003;49.518;11.280;2022-11-12T06:41:35;22.10;;;6.93;;
76210;SDS011;65003;49.518;11.280;2022-11-12T06:44:03;15.43;;;5.97;;
76210;SDS011;65003;49.518;11.280;2022-11-12T06:46:29;11.53;;;5.73;;
76210;SDS011;65003;49.518;11.280;2022-11-12T06:48:56;8.07;;;5.47;;
76210;SDS011;65003;49.518;11.280;2022-11-12T06:51:22;9.83;;;5.87;;
76210;SDS011;65003;49.518;11.280;2022-11-12T06:53:49;43.53;;;8.40;;
76210;SDS011;65003;49.518;11.280;2022-11-12T06:56:16;25.47;;;7.53;;
76210;SDS011;65003;49.518;11.280;2022-11-12T06:58:42;41.50;;;8.60;;
76210;SDS011;65003;49.518;11.280;2022-11-12T07:01:10;9.13;;;5.27;;
76210;SDS011;65003;49.518;11.280;2022-11-12T07:03:36;17.03;;;6.33;;
76210;SDS011;65003;49.518;11.280;2022-11-12T07:06:03;11.93;;;5.83;;
76210;SDS011;65003;49.518;11.280;2022-11-12T07:08:30;14.30;;;5.57;;
76210;SDS011;65003;49.518;11.280;2022-11-12T07:10:57;12.73;;;5.53;;
76210;SDS011;65003;49.518;11.280;2022-11-12T07:13:23;15.30;;;6.63;;
76210;SDS011;65003;49.518;11.280;2022-11-12T07:15:50;8.60;;;5.83;;
76210;SDS011;65003;49.518;11.280;2022-11-12T07:18:16;13.00;;;6.70;;
76210;SDS011;65003;49.518;11.280;2022-11-12T07:20:43;14.97;;;6.10;;
76210;SDS011;65003;49.518;11.280;2022-11-12T07:23:09;9.93;;;6.03;;
76210;SDS011;65003;49.518;11.280;2022-11-12T07:25:36;6.60;;;5.43;;
76210;SDS011;65003;49.518;11.280;2022-11-12T07:28:03;9.20;;;5.53;;
76210;SDS011;65003;49.518;11.280;2022-11-12T07:30:29;16.37;;;5.63;;
76210;SDS011;65003;49.518;11.280;2022-11-12T07:32:57;13.67;;;5.53;;
76210;SDS011;65003;49.518;11.280;2022-11-12T07:35:23;14.03;;;6.23;;
76210;SDS011;65003;49.518;11.280;2022-11-12T07:37:50;12.20;;;6.33;;
76210;SDS011;65003;49.518;11.280;2022-11-12T07:40:16;48.03;;;10.27;;
76210;SDS011;65003;49.518;11.280;2022-11-12T07:42:43;14.83;;;6.37;;
76210;SDS011;65003;49.518;11.280;2022-11-12T07:45:09;7.90;;;5.83;;
76210;SDS011;65003;49.518;11.280;2022-11-12T07:47:36;12.53;;;5.27;;
76210;SDS011;65003;49.518;11.280;2022-11-12T07:50:03;7.57;;;4.93;;
76210;SDS011;65003;49.518;11.280;2022-11-12T07:52:30;8.07;;;5.37;;
76210;SDS011;65003;49.518;11.280;2022-11-12T07:54:56;6.83;;;5.27;;
76210;SDS011;65003;49.518;11.280;2022-11-12T07:57:23;6.60;;;5.10;;
76210;SDS011;65003;49.518;11.280;2022-11-12T07:59:49;6.77;;;5.40;;
76210;SDS011;65003;49.518;11.280;2022-11-12T08:02:16;6.27;;;4.87;;
76210;SDS011;65003;49.518;11.280;2022-11-12T08:04:42;5.30;;;4.53;;
76210;SDS011;65003;49.518;11.280;2022-11-12T08:07:09;7.07;;;5.10;;
76210;SDS011;65003;49.518;11.280;2022-11-12T08:09:35;8.50;;;5.40;;
76210;SDS011;65003;49.518;11.280;2022-11-12T08:12:02;5.10;;;4.60;;
76210;SDS011;65003;49.518;11.280;2022-11-12T08:14:29;5.13;;;4.53;;
76210;SDS011;65003;49.518;11.280;2022-11-12T08:16:55;12.83;;;5.03;;
76210;SDS011;65003;49.518;11.280;2022-11-12T08:19:22;6.80;;;5.30;;
76210;SDS011;65003;49.518;11.280;2022-11-12T08:21:48;4.47;;;4.07;;
76210;SDS011;65003;49.518;11.280;2022-11-12T08:24:15;7.30;;;4.73;;
76210;SDS011;65003;49.518;11.280;2022-11-12T08:26:42;5.70;;;4.53;;
76210;SDS011;65003;49.518;11.280;2022-11-12T08:29:08;7.43;;;5.13;;
76210;SDS011;65003;49.518;11.280;2022-11-12T08:36:54;5.77;;;4.80;;
76210;SDS011;65003;49.518;11.280;2022-11-12T08:39:21;5.63;;;4.77;;
76210;SDS011;65003;49.518;11.280;2022-11-12T08:41:47;7.03;;;5.00;;
76210;SDS011;65003;49.518;11.280;2022-11-12T08:44:14;6.27;;;5.10;;
76210;SDS011;65003;49.518;11.280;2022-11-12T08:46:40;6.90;;;5.50;;
76210;SDS011;65003;49.518;11.280;2022-11-12T08:49:07;7.53;;;5.17;;
76210;SDS011;65003;49.518;11.280;2022-11-12T08:51:33;6.70;;;4.50;;
76210;SDS011;65003;49.518;11.280;2022-11-12T08:54:00;6.30;;;4.30;;
76210;SDS011;65003;49.518;11.280;2022-11-12T08:56:27;5.70;;;4.07;;
76210;SDS011;65003;49.518;11.280;2022-11-12T08:58:53;4.27;;;3.87;;
76210;SDS011;65003;49.518;11.280;2022-11-12T09:01:20;4.43;;;3.77;;
76210;SDS011;65003;49.518;11.280;2022-11-12T09:03:48;5.47;;;4.40;;
76210;SDS011;65003;49.518;11.280;2022-11-12T09:06:13;6.00;;;4.07;;
76210;SDS011;65003;49.518;11.280;2022-11-12T09:08:40;5.97;;;4.40;;
76210;SDS011;65003;49.518;11.280;2022-11-12T09:11:06;5.07;;;4.30;;
76210;SDS011;65003;49.518;11.280;2022-11-12T09:13:33;5.10;;;4.60;;
76210;SDS011;65003;49.518;11.280;2022-11-12T09:16:00;3.90;;;3.50;;
76210;SDS011;65003;49.518;11.280;2022-11-12T09:18:31;5.10;;;3.57;;
76210;SDS011;65003;49.518;11.280;2022-11-12T09:20:58;6.27;;;3.70;;
76210;SDS011;65003;49.518;11.280;2022-11-12T09:23:24;3.93;;;3.63;;
76210;SDS011;65003;49.518;11.280;2022-11-12T09:25:50;3.87;;;3.40;;
76210;SDS011;65003;49.518;11.280;2022-11-12T09:28:17;4.43;;;4.03;;
76210;SDS011;65003;49.518;11.280;2022-11-12T09:30:45;3.67;;;3.37;;
76210;SDS011;65003;49.518;11.280;2022-11-12T09:33:11;3.60;;;3.23;;
76210;SDS011;65003;49.518;11.280;2022-11-12T09:35:38;4.67;;;3.33;;
76210;SDS011;65003;49.518;11.280;2022-11-12T09:38:04;3.97;;;3.20;;
76210;SDS011;65003;49.518;11.280;2022-11-12T09:43:24;4.13;;;3.20;;
76210;SDS011;65003;49.518;11.280;2022-11-12T09:45:55;3.83;;;2.93;;
76210;SDS011;65003;49.518;11.280;2022-11-12T09:48:23;4.73;;;3.33;;
76210;SDS011;65003;49.518;11.280;2022-11-12T09:50:53;3.37;;;3.07;;
76210;SDS011;65003;49.518;11.280;2022-11-12T09:53:19;3.53;;;3.23;;
76210;SDS011;65003;49.518;11.280;2022-11-12T09:55:45;4.97;;;3.13;;
76210;SDS011;65003;49.518;11.280;2022-11-12T09:58:11;3.27;;;2.97;;
76210;SDS011;65003;49.518;11.280;2022-11-12T10:00:39;5.43;;;3.47;;
76210;SDS011;65003;49.518;11.280;2022-11-12T10:03:08;3.33;;;3.03;;
76210;SDS011;65003;49.518;11.280;2022-11-12T10:05:40;3.50;;;3.20;;
76210;SDS011;65003;49.518;11.280;2022-11-12T10:08:19;4.20;;;3.20;;
76210;SDS011;65003;49.518;11.280;2022-11-12T10:10:46;3.83;;;3.43;;
76210;SDS011;65003;49.518;11.280;2022-11-12T10:13:21;6.33;;;3.57;;
76210;SDS011;65003;49.518;11.280;2022-11-12T10:21:15;4.10;;;3.70;;
76210;SDS011;65003;49.518;11.280;2022-11-12T10:23:45;3.87;;;3.20;;
76210;SDS011;65003;49.518;11.280;2022-11-12T10:26:11;3.80;;;3.13;;
76210;SDS011;65003;49.518;11.280;2022-11-12T10:28:41;3.63;;;3.20;;
76210;SDS011;65003;49.518;11.280;2022-11-12T10:31:10;5.37;;;3.73;;
76210;SDS011;65003;49.518;11.280;2022-11-12T10:33:36;4.27;;;3.13;;
76210;SDS011;65003;49.518;11.280;2022-11-12T10:36:11;3.47;;;3.17;;
76210;SDS011;65003;49.518;11.280;2022-11-12T10:38:37;3.90;;;3.60;;
76210;SDS011;65003;49.518;11.280;2022-11-12T10:41:17;7.03;;;3.23;;
76210;SDS011;65003;49.518;11.280;2022-11-12T10:43:52;4.63;;;3.33;;
76210;SDS011;65003;49.518;11.280;2022-11-12T10:46:20;3.63;;;3.17;;
76210;SDS011;65003;49.518;11.280;2022-11-12T10:49:04;3.67;;;2.93;;
76210;SDS011;65003;49.518;11.280;2022-11-12T10:51:32;3.27;;;2.90;;
76210;SDS011;65003;49.518;11.280;2022-11-12T10:53:57;4.60;;;3.00;;
76210;SDS011;65003;49.518;11.280;2022-11-12T10:56:25;6.60;;;3.33;;
76210;SDS011;65003;49.518;11.280;2022-11-12T11:01:43;3.50;;;3.20;;
76210;SDS011;65003;49.518;11.280;2022-11-12T11:04:31;4.90;;;3.20;;
76210;SDS011;65003;49.518;11.280;2022-11-12T11:06:57;3.57;;;3.17;;
76210;SDS011;65003;49.518;11.280;2022-11-12T11:09:23;3.50;;;3.20;;
76210;SDS011;65003;49.518;11.280;2022-11-12T11:11:50;4.00;;;2.70;;
76210;SDS011;65003;49.518;11.280;2022-11-12T11:14:24;3.23;;;2.77;;
76210;SDS011;65003;49.518;11.280;2022-11-12T11:16:52;7.07;;;3.10;;
76210;SDS011;65003;49.518;11.280;2022-11-12T11:19:20;4.50;;;3.20;;
76210;SDS011;65003;49.518;11.280;2022-11-12T11:21:52;4.10;;;3.00;;
76210;SDS011;65003;49.518;11.280;2022-11-12T11:26:55;5.00;;;3.30;;
76210;SDS011;65003;49.518;11.280;2022-11-12T11:29:40;4.43;;;2.87;;
76210;SDS011;65003;49.518;11.280;2022-11-12T11:32:24;2.70;;;2.47;;
76210;SDS011;65003;49.518;11.280;2022-11-12T11:34:52;4.13;;;2.77;;
76210;SDS011;65003;49.518;11.280;2022-11-12T11:37:23;6.20;;;3.80;;
76210;SDS011;65003;49.518;11.280;2022-11-12T11:40:07;4.33;;;2.80;;
76210;SDS011;65003;49.518;11.280;2022-11-12T11:42:37;3.60;;;2.60;;
76210;SDS011;65003;49.518;11.280;2022-11-12T11:45:14;2.67;;;2.40;;
76210;SDS011;65003;49.518;11.280;2022-11-12T11:47:53;3.10;;;2.60;;
76210;SDS011;65003;49.518;11.280;2022-11-12T11:50:24;2.97;;;2.37;;
76210;SDS011;65003;49.518;11.280;2022-11-12T11:53:08;2.77;;;2.40;;
76210;SDS011;65003;49.518;11.280;2022-11-12T11:55:59;2.97;;;2.47;;
76210;SDS011;65003;49.518;11.280;2022-11-12T11:58:30;4.27;;;2.50;;
76210;SDS011;65003;49.518;11.280;2022-11-12T12:03:44;2.63;;;2.43;;
76210;SDS011;65003;49.518;11.280;2022-11-12T12:06:11;2.67;;;2.43;;
76210;SDS011;65003;49.518;11.280;2022-11-12T12:08:54;3.90;;;2.33;;
76210;SDS011;65003;49.518;11.280;2022-11-12T12:11:20;3.70;;;2.40;;
76210;SDS011;65003;49.518;11.280;2022-11-12T12:14:08;3.73;;;2.37;;
76210;SDS011;65003;49.518;11.280;2022-11-12T12:19:32;1.83;;;1.73;;
76210;SDS011;65003;49.518;11.280;2022-11-12T12:22:03;2.47;;;1.63;;
76210;SDS011;65003;49.518;11.280;2022-11-12T12:24:31;2.80;;;2.07;;
76210;SDS011;65003;49.518;11.280;2022-11-12T12:26:59;3.73;;;2.53;;
76210;SDS011;65003;49.518;11.280;2022-11-12T12:29:35;3.23;;;2.37;;
76210;SDS011;65003;49.518;11.280;2022-11-12T12:32:08;2.80;;;1.90;;
76210;SDS011;65003;49.518;11.280;2022-11-12T12:34:33;2.80;;;2.50;;
76210;SDS011;65003;49.518;11.280;2022-11-12T12:37:01;4.30;;;2.13;;
76210;SDS011;65003;49.518;11.280;2022-11-12T12:39:34;3.57;;;2.13;;
76210;SDS011;65003;49.518;11.280;2022-11-12T12:42:00;3.60;;;2.00;;
76210;SDS011;65003;49.518;11.280;2022-11-12T12:44:28;3.53;;;1.90;;
76210;SDS011;65003;49.518;11.280;2022-11-12T12:46:55;2.17;;;1.77;;
76210;SDS011;65003;49.518;11.280;2022-11-12T12:49:24;2.50;;;2.00;;
76210;SDS011;65003;49.518;11.280;2022-11-12T12:51:49;3.57;;;2.27;;
76210;SDS011;65003;49.518;11.280;2022-11-12T12:56:54;2.50;;;1.87;;
76210;SDS011;65003;49.518;11.280;2022-11-12T12:59:22;2.90;;;2.07;;
76210;SDS011;65003;49.518;11.280;2022-11-12T13:01:53;2.37;;;2.17;;
76210;SDS011;65003;49.518;11.280;2022-11-12T13:04:48;3.27;;;1.83;;
76210;SDS011;65003;49.518;11.280;2022-11-12T13:06:52;4.00;;;2.20;;
76210;SDS011;65003;49.518;11.280;2022-11-12T13:09:21;2.27;;;1.93;;
76210;SDS011;65003;49.518;11.280;2022-11-12T13:11:48;3.57;;;2.20;;
76210;SDS011;65003;49.518;11.280;2022-11-12T13:14:42;4.23;;;2.50;;
76210;SDS011;65003;49.518;11.280;2022-11-12T13:17:04;2.80;;;2.60;;
76210;SDS011;65003;49.518;11.280;2022-11-12T13:19:38;4.83;;;2.90;;
76210;SDS011;65003;49.518;11.280;2022-11-12T13:22:48;4.70;;;2.70;;
76210;SDS011;65003;49.518;11.280;2022-11-12T13:25:03;3.13;;;2.73;;
76210;SDS011;65003;49.518;11.280;2022-11-12T13:28:06;2.70;;;2.40;;
76210;SDS011;65003;49.518;11.280;2022-11-12T13:33:28;3.63;;;2.67;;
76210;SDS011;65003;49.518;11.280;2022-11-12T13:36:03;2.97;;;2.70;;
76210;SDS011;65003;49.518;11.280;2022-11-12T13:38:19;3.03;;;2.57;;
76210;SDS011;65003;49.518;11.280;2022-11-12T13:41:03;3.33;;;3.00;;
76210;SDS011;65003;49.518;11.280;2022-11-12T13:43:36;5.67;;;2.80;;
76210;SDS011;65003;49.518;11.280;2022-11-12T13:46:09;3.37;;;2.37;;
76210;SDS011;65003;49.518;11.280;2022-11-12T13:48:34;4.63;;;2.43;;
76210;SDS011;65003;49.518;11.280;2022-11-12T13:51:02;2.70;;;2.50;;
76210;SDS011;65003;49.518;11.280;2022-11-12T13:53:28;2.93;;;2.03;;
76210;SDS011;65003;49.518;11.280;2022-11-12T13:55:54;5.13;;;2.30;;
76210;SDS011;65003;49.518;11.280;2022-11-12T13:58:26;3.50;;;2.80;;
76210;SDS011;65003;49.518;11.280;2022-11-12T14:00:54;3.20;;;2.37;;
76210;SDS011;65003;49.518;11.280;2022-11-12T14:03:21;2.97;;;2.40;;
76210;SDS011;65003;49.518;11.280;2022-11-12T14:05:48;4.37;;;2.10;;
76210;SDS011;65003;49.518;11.280;2022-11-12T14:08:19;2.67;;;2.33;;
76210;SDS011;65003;49.518;11.280;2022-11-12T14:10:52;2.10;;;1.90;;
76210;SDS011;65003;49.518;11.280;2022-11-12T14:13:20;3.13;;;2.43;;
76210;SDS011;65003;49.518;11.280;2022-11-12T14:16:11;3.73;;;2.10;;
76210;SDS011;65003;49.518;11.280;2022-11-12T14:21:21;3.07;;;2.20;;
76210;SDS011;65003;49.518;11.280;2022-11-12T14:23:48;4.47;;;2.60;;
76210;SDS011;65003;49.518;11.280;2022-11-12T14:26:32;3.00;;;2.23;;
76210;SDS011;65003;49.518;11.280;2022-11-12T14:28:56;3.47;;;2.87;;
76210;SDS011;65003;49.518;11.280;2022-11-12T14:31:23;4.17;;;3.50;;
76210;SDS011;65003;49.518;11.280;2022-11-12T14:33:49;5.63;;;3.87;;
76210;SDS011;65003;49.518;11.280;2022-11-12T14:36:16;4.53;;;3.20;;
76210;SDS011;65003;49.518;11.280;2022-11-12T14:38:43;7.00;;;3.53;;
76210;SDS011;65003;49.518;11.280;2022-11-12T14:41:20;5.30;;;3.40;;
76210;SDS011;65003;49.518;11.280;2022-11-12T14:43:47;5.53;;;3.27;;
76210;SDS011;65003;49.518;11.280;2022-11-12T14:46:33;4.23;;;3.10;;
76210;SDS011;65003;49.518;11.280;2022-11-12T14:49:03;5.70;;;4.03;;
76210;SDS011;65003;49.518;11.280;2022-11-12T14:51:40;6.13;;;4.30;;
76210;SDS011;65003;49.518;11.280;2022-11-12T14:54:00;6.63;;;5.10;;
76210;SDS011;65003;49.518;11.280;2022-11-12T14:56:29;6.60;;;4.97;;
76210;SDS011;65003;49.518;11.280;2022-11-12T14:58:53;5.43;;;4.30;;
76210;SDS011;65003;49.518;11.280;2022-11-12T15:01:22;8.83;;;6.13;;
76210;SDS011;65003;49.518;11.280;2022-11-12T15:03:51;8.20;;;6.93;;
76210;SDS011;65003;49.518;11.280;2022-11-12T15:06:20;8.63;;;7.10;;
76210;SDS011;65003;49.518;11.280;2022-11-12T15:08:54;8.00;;;6.40;;
76210;SDS011;65003;49.518;11.280;2022-11-12T15:11:21;7.07;;;5.63;;
76210;SDS011;65003;49.518;11.280;2022-11-12T15:13:56;10.07;;;6.17;;